Time;durP1;ratioP1;P1;durP2;ratioP2;P2;SDS_P1;SDS_P2;PMS_P1;PMS_P2;Temp;Humidity;BMP_temperature;BMP_pressure;BME280_temperature;BME280_humidity;BME280_pressure;Samples;Min_cycle;Max_cycle;Signal;HPM_P1;HPM_P2
2022/07/05 00:00:26;;;;;;;10.00;9.07;;;18.30;1.00;;;;;;6104945;23;20748;-76
2022/07/05 00:02:52;;;;;;;10.87;9.77;;;18.30;1.00;;;;;;6106402;23;21390;-77
2022/07/05 00:05:21;;;;;;;10.67;9.50;;;18.30;1.00;;;;;;6107089;23;20389;-77
2022/07/05 00:07:48;;;;;;;12.90;9.40;;;18.30;1.00;;;;;;6106625;23;20443;-76
2022/07/05 00:10:15;;;;;;;9.43;8.47;;;18.30;1.00;;;;;;6106984;23;21000;-76
2022/07/05 00:12:46;;;;;;;7.30;6.60;;;18.20;1.00;;;;;;6108133;23;20400;-75
2022/07/05 00:15:13;;;;;;;8.20;7.40;;;18.20;1.00;;;;;;6106821;23;20603;-77
2022/07/05 00:17:42;;;;;;;7.37;6.70;;;18.20;1.00;;;;;;6108045;23;20459;-78
2022/07/05 00:20:12;;;;;;;9.00;6.93;;;18.20;1.00;;;;;;6109427;23;20460;-77
2022/07/05 00:22:42;;;;;;;7.47;6.80;;;18.10;1.00;;;;;;6109247;23;20431;-78
2022/07/05 00:25:10;;;;;;;8.47;7.03;;;18.10;1.00;;;;;;6108014;23;20424;-79
2022/07/05 00:27:41;;;;;;;8.60;7.47;;;18.00;1.00;;;;;;6105769;23;20413;-76
2022/07/05 00:30:12;;;;;;;7.30;6.60;;;18.00;1.00;;;;;;6107324;23;20790;-77
2022/07/05 00:32:42;;;;;;;7.10;6.50;;;18.00;1.00;;;;;;6104809;23;20401;-76
2022/07/05 00:35:09;;;;;;;8.10;7.40;;;18.00;1.00;;;;;;6105829;23;20897;-78
2022/07/05 00:37:40;;;;;;;7.60;6.57;;;17.90;1.00;;;;;;6106499;23;20459;-77
2022/07/05 00:40:09;;;;;;;7.03;6.43;;;17.80;1.00;;;;;;6107954;23;20428;-75
2022/07/05 00:42:41;;;;;;;7.03;5.50;;;17.80;1.00;;;;;;6106634;23;20866;-75
2022/07/05 00:45:11;;;;;;;6.77;6.13;;;17.70;1.00;;;;;;6105063;23;20442;-76
2022/07/05 00:47:44;;;;;;;6.87;5.77;;;17.70;1.00;;;;;;6106904;23;20400;-78
2022/07/05 00:50:11;;;;;;;8.50;6.73;;;17.70;1.00;;;;;;6106964;23;20892;-76
2022/07/05 00:52:42;;;;;;;7.50;6.50;;;17.70;1.00;;;;;;6105026;23;20642;-77
2022/07/05 00:55:09;;;;;;;6.77;6.17;;;17.60;1.00;;;;;;6106094;23;20428;-76
2022/07/05 00:57:41;;;;;;;6.50;5.70;;;17.60;1.00;;;;;;6103319;23;20442;-77
2022/07/05 01:00:09;;;;;;;6.43;5.50;;;17.60;1.00;;;;;;6105598;23;20436;-77
2022/07/05 01:02:40;;;;;;;7.63;6.20;;;17.60;1.00;;;;;;6104690;23;20952;-76
2022/07/05 01:05:14;;;;;;;6.90;6.03;;;17.50;1.00;;;;;;6105384;23;20437;-78
2022/07/05 01:07:41;;;;;;;8.90;6.70;;;17.50;1.00;;;;;;6105580;23;20514;-78
2022/07/05 01:10:10;;;;;;;7.90;6.97;;;17.50;1.00;;;;;;6105994;23;20407;-78
2022/07/05 01:12:43;;;;;;;7.00;5.70;;;17.50;1.00;;;;;;6102474;23;20424;-77
2022/07/05 01:15:10;;;;;;;6.33;5.73;;;17.50;1.00;;;;;;6106656;23;20380;-77
2022/07/05 01:17:43;;;;;;;9.03;5.53;;;17.50;1.00;;;;;;6106393;23;20415;-77
2022/07/05 01:20:10;;;;;;;7.83;5.60;;;17.60;1.00;;;;;;6104896;23;20447;-77
2022/07/05 01:23:02;;;;;;;6.30;5.10;;;17.60;1.00;;;;;;6103294;23;20425;-77
2022/07/05 01:25:30;;;;;;;6.87;5.30;;;17.70;1.00;;;;;;6107759;23;20826;-77
2022/07/05 01:28:04;;;;;;;5.77;5.20;;;17.70;1.00;;;;;;6104438;23;20434;-79
2022/07/05 01:30:34;;;;;;;6.10;4.83;;;17.80;1.00;;;;;;6104132;23;20415;-77
2022/07/05 01:33:06;;;;;;;11.83;5.20;;;17.80;1.00;;;;;;6106764;23;20468;-78
2022/07/05 01:35:34;;;;;;;7.17;4.87;;;17.80;1.00;;;;;;6106854;23;20433;-77
2022/07/05 01:38:04;;;;;;;5.77;5.17;;;17.80;1.00;;;;;;6107844;23;20397;-76
2022/07/05 01:40:32;;;;;;;5.30;4.80;;;17.80;1.00;;;;;;6106012;23;20419;-75
2022/07/05 01:43:03;;;;;;;5.30;4.80;;;17.80;1.00;;;;;;6105240;23;20411;-78
2022/07/05 01:45:42;;;;;;;6.03;5.10;;;17.70;1.00;;;;;;6105127;23;20443;-77
2022/07/05 01:48:13;;;;;;;5.67;5.13;;;17.70;1.00;;;;;;6103666;23;20820;-79
2022/07/05 01:50:48;;;;;;;5.90;4.93;;;17.60;1.00;;;;;;6105922;23;20393;-77
2022/07/05 01:53:23;;;;;;;5.50;4.67;;;17.50;1.00;;;;;;6106385;23;20451;-78
2022/07/05 01:55:51;;;;;;;6.83;5.10;;;17.40;1.00;;;;;;6104435;23;20928;-78
2022/07/05 01:58:27;;;;;;;5.70;5.17;;;17.40;1.00;;;;;;6106606;23;20411;-77
2022/07/05 02:00:55;;;;;;;7.67;5.00;;;17.40;1.00;;;;;;6102953;23;20448;-77
2022/07/05 02:03:23;;;;;;;6.77;5.67;;;17.30;1.00;;;;;;6105000;23;20393;-78
2022/07/05 02:05:52;;;;;;;9.50;4.90;;;17.30;1.00;;;;;;6104485;23;20424;-77
2022/07/05 02:08:21;;;;;;;5.20;4.37;;;17.40;1.00;;;;;;6102485;23;20441;-78
2022/07/05 02:10:52;;;;;;;4.80;4.20;;;17.40;1.00;;;;;;6105601;23;20465;-76
2022/07/05 02:13:20;;;;;;;4.47;3.40;;;17.40;1.00;;;;;;6104744;23;20512;-77
2022/07/05 02:15:57;;;;;;;4.30;4.00;;;17.40;1.00;;;;;;6106605;23;20435;-77
2022/07/05 02:18:25;;;;;;;6.63;3.90;;;17.40;1.00;;;;;;6107522;23;20467;-77
2022/07/05 02:20:52;;;;;;;4.53;3.40;;;17.40;1.00;;;;;;6102078;23;20816;-77
2022/07/05 02:23:24;;;;;;;3.63;3.10;;;17.50;1.00;;;;;;6108850;23;20400;-77
2022/07/05 02:25:51;;;;;;;2.97;2.60;;;17.50;1.00;;;;;;6104451;23;20436;-77
2022/07/05 02:28:24;;;;;;;4.77;3.30;;;17.50;1.00;;;;;;6106462;23;20390;-77
2022/07/05 02:30:51;;;;;;;3.90;2.70;;;17.50;1.00;;;;;;6105195;23;20428;-78
2022/07/05 02:33:25;;;;;;;3.00;2.70;;;17.50;1.00;;;;;;6106785;23;20408;-77
2022/07/05 02:35:52;;;;;;;4.83;2.77;;;17.50;1.00;;;;;;6098018;23;20425;-77
2022/07/05 02:38:24;;;;;;;4.50;2.80;;;17.50;1.00;;;;;;6106615;23;20448;-79
2022/07/05 02:40:51;;;;;;;2.57;2.30;;;17.50;1.00;;;;;;6103824;23;20432;-77
2022/07/05 02:43:30;;;;;;;4.00;2.50;;;17.50;1.00;;;;;;6105613;23;20408;-78
2022/07/05 02:45:57;;;;;;;2.80;2.53;;;17.50;1.00;;;;;;6105939;23;20424;-79
2022/07/05 02:48:27;;;;;;;3.97;2.53;;;17.50;1.00;;;;;;6106766;23;20539;-79
2022/07/05 02:50:54;;;;;;;3.13;2.70;;;17.50;1.00;;;;;;6109160;23;20452;-78
2022/07/05 02:53:25;;;;;;;4.23;2.80;;;17.50;1.00;;;;;;6109998;23;20433;-80
2022/07/05 02:55:52;;;;;;;3.43;2.23;;;17.40;1.00;;;;;;6108332;23;20439;-79
2022/07/05 02:58:23;;;;;;;4.40;2.90;;;17.40;1.00;;;;;;6109895;23;20597;-79
2022/07/05 03:00:50;;;;;;;4.60;2.80;;;17.40;1.00;;;;;;6105258;23;21005;-78
2022/07/05 03:03:27;;;;;;;3.47;2.40;;;17.40;1.00;;;;;;6108740;23;20428;-78
2022/07/05 03:05:54;;;;;;;5.07;2.97;;;17.40;1.00;;;;;;6106411;23;21144;-79
2022/07/05 03:08:24;;;;;;;3.90;2.40;;;17.40;1.00;;;;;;6102912;23;20408;-79
2022/07/05 03:10:51;;;;;;;3.20;2.40;;;17.40;1.00;;;;;;6105615;23;20397;-78
2022/07/05 03:13:25;;;;;;;3.20;2.90;;;17.30;1.00;;;;;;6107239;23;20411;-78
2022/07/05 03:15:51;;;;;;;2.50;2.30;;;17.30;1.00;;;;;;6104601;23;20881;-79
2022/07/05 03:18:28;;;;;;;3.80;2.60;;;17.30;1.00;;;;;;6106073;23;20407;-79
2022/07/05 03:20:55;;;;;;;2.57;2.37;;;17.30;1.00;;;;;;6106467;23;20420;-78
2022/07/05 03:23:24;;;;;;;2.97;2.67;;;17.20;1.00;;;;;;6108664;23;20433;-80
2022/07/05 03:25:51;;;;;;;4.10;3.00;;;17.20;1.00;;;;;;6107412;23;20420;-78
2022/07/05 03:28:23;;;;;;;5.30;3.20;;;17.20;1.00;;;;;;6109866;23;20415;-77
2022/07/05 03:30:50;;;;;;;4.03;2.90;;;17.20;1.00;;;;;;6108972;23;20480;-78
2022/07/05 03:33:24;;;;;;;4.50;3.37;;;17.20;1.00;;;;;;6108725;23;20421;-77
2022/07/05 03:35:51;;;;;;;2.80;2.60;;;17.20;1.00;;;;;;6109129;23;20885;-78
2022/07/05 03:38:25;;;;;;;3.33;3.03;;;17.20;1.00;;;;;;6108307;23;20400;-80
2022/07/05 03:40:51;;;;;;;3.80;3.20;;;17.20;1.00;;;;;;6107030;23;20400;-81
2022/07/05 03:43:23;;;;;;;3.33;3.00;;;17.20;1.00;;;;;;6109899;23;20397;-80
2022/07/05 03:45:50;;;;;;;6.93;6.03;;;17.20;1.00;;;;;;6110021;23;20432;-79
2022/07/05 03:48:23;;;;;;;5.00;3.43;;;17.20;1.00;;;;;;6109844;23;20460;-79
2022/07/05 03:50:51;;;;;;;3.67;3.10;;;17.20;1.00;;;;;;6110306;23;20426;-79
2022/07/05 03:53:22;;;;;;;4.40;3.10;;;17.20;1.00;;;;;;6109216;23;20436;-80
2022/07/05 03:55:50;;;;;;;6.80;3.70;;;17.20;1.00;;;;;;6110387;23;20478;-80
2022/07/05 03:58:22;;;;;;;3.40;2.83;;;17.20;1.00;;;;;;6110080;23;20516;-80
2022/07/05 04:00:50;;;;;;;3.47;3.10;;;17.20;1.00;;;;;;6108909;23;20932;-80
2022/07/05 04:03:25;;;;;;;5.67;4.57;;;17.20;1.00;;;;;;6129912;23;20424;-80
2022/07/05 04:05:51;;;;;;;6.70;6.10;;;17.30;1.00;;;;;;6104859;23;20432;-81
2022/07/05 04:08:23;;;;;;;3.77;3.40;;;17.30;1.00;;;;;;6110734;23;20415;-81
2022/07/05 04:10:51;;;;;;;4.73;3.80;;;17.40;1.00;;;;;;6108456;23;20496;-80
2022/07/05 04:13:23;;;;;;;5.40;3.53;;;17.40;1.00;;;;;;6107506;23;20412;-80
2022/07/05 04:15:53;;;;;;;4.33;3.63;;;17.40;1.00;;;;;;6108085;23;20468;-81
2022/07/05 04:18:23;;;;;;;15.17;4.97;;;17.40;1.00;;;;;;6108048;23;20408;-82
2022/07/05 04:20:50;;;;;;;4.30;3.30;;;17.50;1.00;;;;;;6107690;23;20527;-81
2022/07/05 04:23:21;;;;;;;9.17;4.27;;;17.50;1.00;;;;;;6111976;23;20421;-80
2022/07/05 04:25:51;;;;;;;4.50;4.10;;;17.50;1.00;;;;;;6108369;23;20423;-81
2022/07/05 04:28:23;;;;;;;3.50;3.20;;;17.50;1.00;;;;;;6122993;23;20435;-78
2022/07/05 04:30:50;;;;;;;6.47;3.73;;;17.50;1.00;;;;;;6110253;23;20690;-79
2022/07/05 04:33:23;;;;;;;17.80;3.77;;;17.50;1.00;;;;;;6108891;23;20401;-84
2022/07/05 04:35:50;;;;;;;4.70;3.13;;;17.60;1.00;;;;;;6112093;23;20440;-80
2022/07/05 04:38:21;;;;;;;4.40;2.70;;;17.60;1.00;;;;;;6113642;23;20436;-79
2022/07/05 04:40:48;;;;;;;2.90;2.63;;;17.60;1.00;;;;;;6106569;23;20815;-76
2022/07/05 04:43:16;;;;;;;4.20;2.80;;;17.70;1.00;;;;;;6104375;23;20404;-77
2022/07/05 04:45:51;;;;;;;7.20;3.20;;;17.80;1.00;;;;;;6128689;23;20376;-77
2022/07/05 04:48:28;;;;;;;6.70;2.43;;;17.90;1.00;;;;;;6110446;23;20412;-80
2022/07/05 04:50:55;;;;;;;7.60;3.20;;;17.90;1.00;;;;;;6107665;23;20423;-80
2022/07/05 04:53:23;;;;;;;9.57;4.73;;;18.00;1.00;;;;;;6104746;23;20492;-79
2022/07/05 04:55:53;;;;;;;7.37;3.23;;;18.10;1.00;;;;;;6110392;23;20392;-78
2022/07/05 04:58:22;;;;;;;3.30;2.10;;;18.20;1.00;;;;;;6108409;23;20443;-78
2022/07/05 05:00:50;;;;;;;4.10;3.50;;;18.30;1.00;;;;;;6100380;23;20613;-79
2022/07/05 05:03:22;;;;;;;4.90;2.93;;;18.30;1.00;;;;;;6108608;23;20472;-81
2022/07/05 05:05:49;;;;;;;2.77;2.57;;;18.50;1.00;;;;;;6104810;23;20512;-80
2022/07/05 05:08:16;;;;;;;3.97;2.53;;;18.50;1.00;;;;;;6091828;23;20478;-78
2022/07/05 05:10:43;;;;;;;2.57;1.90;;;18.60;1.00;;;;;;6104953;23;20400;-80
2022/07/05 05:13:13;;;;;;;5.60;2.83;;;18.70;1.00;;;;;;6105129;23;20441;-78
2022/07/05 05:15:45;;;;;;;15.23;10.43;;;18.80;1.00;;;;;;6106478;23;20448;-79
2022/07/05 05:18:15;;;;;;;4.87;3.83;;;18.90;1.00;;;;;;6104149;23;20524;-79
2022/07/05 05:20:44;;;;;;;7.60;3.60;;;19.00;1.00;;;;;;6108093;23;21108;-79
2022/07/05 05:23:14;;;;;;;4.70;3.50;;;19.10;1.00;;;;;;6107247;23;20495;-80
2022/07/05 05:25:48;;;;;;;9.73;7.27;;;19.20;1.00;;;;;;6092467;23;20385;-79
2022/07/05 05:28:15;;;;;;;5.53;3.00;;;19.30;1.00;;;;;;6106312;23;20416;-78
2022/07/05 05:30:44;;;;;;;5.83;3.03;;;19.40;1.00;;;;;;6107744;23;20415;-79
2022/07/05 05:33:11;;;;;;;5.70;2.53;;;19.50;1.00;;;;;;6109058;23;20557;-80
2022/07/05 05:35:46;;;;;;;3.63;2.63;;;19.60;1.00;;;;;;6107631;23;20488;-77
2022/07/05 05:38:13;;;;;;;5.57;2.90;;;19.70;1.00;;;;;;6108402;23;20711;-79
2022/07/05 05:40:44;;;;;;;4.57;2.37;;;19.80;1.00;;;;;;6106498;23;20408;-80
2022/07/05 05:43:11;;;;;;;6.00;2.73;;;19.90;1.00;;;;;;6107051;23;20455;-79
2022/07/05 05:45:43;;;;;;;7.10;4.57;;;20.00;1.00;;;;;;6108354;23;20421;-79
2022/07/05 05:48:10;;;;;;;8.20;4.20;;;20.10;1.00;;;;;;6109911;23;20456;-79
2022/07/05 05:50:39;;;;;;;5.93;5.07;;;20.20;1.00;;;;;;6104172;23;20413;-79
2022/07/05 05:53:06;;;;;;;5.83;3.63;;;20.20;1.00;;;;;;6102727;23;20436;-74
2022/07/05 05:55:34;;;;;;;4.53;2.10;;;20.30;1.00;;;;;;6103325;23;20463;-77
2022/07/05 05:58:12;;;;;;;5.40;2.60;;;20.40;1.00;;;;;;6105552;23;20412;-79
2022/07/05 06:00:47;;;;;;;6.90;2.60;;;20.50;1.00;;;;;;6105770;23;20437;-78
2022/07/05 06:03:15;;;;;;;5.77;5.17;;;20.50;1.00;;;;;;6109357;23;20579;-75
2022/07/05 06:05:45;;;;;;;7.83;3.10;;;20.60;1.00;;;;;;6107720;23;20372;-76
2022/07/05 06:08:13;;;;;;;2.70;2.33;;;20.70;1.00;;;;;;6106556;23;20872;-78
2022/07/05 06:10:44;;;;;;;5.07;2.80;;;20.80;1.00;;;;;;6104529;23;20408;-75
2022/07/05 06:13:15;;;;;;;5.73;2.20;;;20.80;1.00;;;;;;6108465;23;20397;-80
2022/07/05 06:15:44;;;;;;;3.97;2.53;;;20.90;1.00;;;;;;6106314;23;20405;-79
2022/07/05 06:18:12;;;;;;;2.93;2.50;;;21.00;1.00;;;;;;6108891;23;20520;-80
2022/07/05 06:20:43;;;;;;;2.40;1.60;;;21.10;1.00;;;;;;6108655;23;20850;-76
2022/07/05 06:23:12;;;;;;;5.50;3.30;;;21.20;1.00;;;;;;6109095;23;20424;-79
2022/07/05 06:25:43;;;;;;;3.10;1.40;;;21.30;1.00;;;;;;6108056;23;20432;-81
2022/07/05 06:28:10;;;;;;;3.77;2.27;;;21.40;1.00;;;;;;6108797;23;20527;-81
2022/07/05 06:30:43;;;;;;;3.70;1.93;;;21.40;1.00;;;;;;6106683;23;20432;-80
2022/07/05 06:33:10;;;;;;;3.67;2.20;;;21.50;1.00;;;;;;6107510;23;20423;-80
2022/07/05 06:35:44;;;;;;;2.97;2.60;;;21.50;1.00;;;;;;6107423;23;20511;-80
2022/07/05 06:38:14;;;;;;;3.80;2.70;;;21.50;1.00;;;;;;6106684;23;20440;-74
2022/07/05 06:40:48;;;;;;;6.57;3.90;;;21.60;1.00;;;;;;6104382;23;20816;-75
2022/07/05 06:43:15;;;;;;;7.30;3.13;;;21.60;1.00;;;;;;6105198;23;20428;-76
2022/07/05 06:45:45;;;;;;;3.00;2.63;;;21.70;1.00;;;;;;6105572;23;20419;-74
2022/07/05 06:48:12;;;;;;;4.47;3.30;;;21.80;1.00;;;;;;6106758;23;20393;-78
2022/07/05 06:50:46;;;;;;;4.53;4.10;;;21.70;1.00;;;;;;6103216;23;20400;-77
2022/07/05 06:53:14;;;;;;;5.57;2.63;;;21.80;1.00;;;;;;6103641;23;20431;-76
2022/07/05 06:55:45;;;;;;;3.93;2.07;;;21.90;1.00;;;;;;6104847;23;20389;-73
2022/07/05 06:58:12;;;;;;;2.70;2.10;;;21.90;1.00;;;;;;6104455;23;20445;-77
2022/07/05 07:00:45;;;;;;;5.93;2.33;;;21.90;1.00;;;;;;6102339;23;20385;-77
2022/07/05 07:03:12;;;;;;;2.90;1.60;;;21.90;1.00;;;;;;6104408;23;20421;-77
2022/07/05 07:05:44;;;;;;;2.73;1.90;;;22.00;1.00;;;;;;6105142;23;20408;-78
2022/07/05 07:10:58;;;;;;;4.43;2.73;;;22.30;1.00;;;;;;6105073;23;20299;-77
2022/07/05 07:13:25;;;;;;;3.83;2.70;;;22.50;1.00;;;;;;6092772;23;20437;-78
2022/07/05 07:15:52;;;;;;;4.53;2.10;;;22.50;1.00;;;;;;6104832;23;20421;-77
2022/07/05 07:18:26;;;;;;;6.23;3.10;;;22.60;1.00;;;;;;6105372;23;20433;-80
2022/07/05 07:20:53;;;;;;;2.30;2.10;;;22.60;1.00;;;;;;6103247;23;20425;-79
2022/07/05 07:23:25;;;;;;;3.73;3.13;;;22.70;1.00;;;;;;6106847;23;20471;-77
2022/07/05 07:25:52;;;;;;;2.00;1.70;;;22.80;1.00;;;;;;6107323;23;20518;-77
2022/07/05 07:28:19;;;;;;;5.10;1.77;;;22.90;1.00;;;;;;6103442;23;20432;-77
2022/07/05 07:30:47;;;;;;;5.70;2.00;;;22.90;1.00;;;;;;6097442;23;20428;-78
2022/07/05 07:33:14;;;;;;;3.80;2.50;;;22.80;1.00;;;;;;6099119;23;20424;-75
2022/07/05 07:35:42;;;;;;;3.40;1.87;;;22.90;1.00;;;;;;6103374;23;20385;-76
2022/07/05 07:38:14;;;;;;;3.43;1.97;;;22.90;1.00;;;;;;6103647;23;21247;-75
2022/07/05 07:40:42;;;;;;;2.80;2.00;;;22.90;1.00;;;;;;6078353;23;20421;-78
2022/07/05 07:43:13;;;;;;;5.73;3.27;;;22.80;1.00;;;;;;6106188;23;20492;-77
2022/07/05 07:45:41;;;;;;;3.27;2.03;;;22.90;1.00;;;;;;6104407;23;20432;-76
2022/07/05 07:48:10;;;;;;;2.40;2.10;;;22.90;1.00;;;;;;6107400;23;20447;-76
2022/07/05 07:50:37;;;;;;;2.37;1.90;;;22.90;1.00;;;;;;6105336;23;20428;-75
2022/07/05 07:53:04;;;;;;;3.27;2.20;;;22.90;1.00;;;;;;6103760;23;20440;-78
2022/07/05 07:55:34;;;;;;;3.27;1.90;;;22.90;1.00;;;;;;6106888;23;20392;-75
2022/07/05 07:58:03;;;;;;;5.07;2.37;;;23.00;1.00;;;;;;6105853;23;20513;-77
2022/07/05 08:00:36;;;;;;;4.10;2.10;;;23.00;1.00;;;;;;6105867;23;20377;-76
2022/07/05 08:03:03;;;;;;;5.37;2.20;;;23.20;1.00;;;;;;6103881;23;20459;-78
2022/07/05 08:05:30;;;;;;;4.13;2.30;;;23.40;1.00;;;;;;6101825;23;20434;-76
2022/07/05 08:07:57;;;;;;;2.67;2.20;;;23.40;1.00;;;;;;6087588;23;20436;-77
2022/07/05 08:10:24;;;;;;;4.60;2.57;;;23.50;1.00;;;;;;6099488;23;20471;-76
2022/07/05 08:12:52;;;;;;;4.30;2.00;;;23.60;1.00;;;;;;6101270;23;20464;-77
2022/07/05 08:15:22;;;;;;;3.70;2.20;;;23.70;1.00;;;;;;6101287;23;20574;-77
2022/07/05 08:23:15;;;;;;;2.00;1.80;;;24.10;1.00;;;;;;6101880;23;20417;-77
2022/07/05 08:25:42;;;;;;;2.40;2.20;;;24.30;1.00;;;;;;6102089;23;20471;-77
2022/07/05 08:28:09;;;;;;;2.00;1.80;;;24.30;1.00;;;;;;6101474;23;20530;-77
2022/07/05 08:30:38;;;;;;;2.60;2.10;;;24.40;1.00;;;;;;6102635;23;20428;-77
2022/07/05 08:33:05;;;;;;;2.60;1.80;;;24.40;1.00;;;;;;6103159;23;20444;-77
2022/07/05 08:35:33;;;;;;;3.53;1.70;;;24.40;1.00;;;;;;6103868;23;20427;-77
2022/07/05 08:38:00;;;;;;;2.67;2.03;;;24.30;1.00;;;;;;6102842;23;21030;-78
2022/07/05 08:40:32;;;;;;;2.37;1.93;;;24.40;1.00;;;;;;6102004;23;20444;-77
2022/07/05 08:42:59;;;;;;;3.97;1.87;;;24.50;1.00;;;;;;6103786;23;20499;-77
2022/07/05 08:45:27;;;;;;;2.93;2.00;;;24.70;1.00;;;;;;6101525;23;20498;-78
2022/07/05 08:47:59;;;;;;;2.87;2.00;;;24.80;1.00;;;;;;6103300;23;20440;-79
2022/07/05 08:50:27;;;;;;;3.43;2.10;;;24.90;1.00;;;;;;6104508;23;20491;-79
2022/07/05 08:52:54;;;;;;;2.27;1.63;;;25.10;1.00;;;;;;6102695;23;20424;-78
2022/07/05 08:55:22;;;;;;;4.20;2.73;;;25.00;1.00;;;;;;6101080;23;20490;-81
2022/07/05 08:57:50;;;;;;;3.07;2.10;;;25.00;1.00;;;;;;6100839;23;20524;-78
2022/07/05 09:00:17;;;;;;;2.50;1.93;;;25.00;1.00;;;;;;6116892;23;20415;-80
2022/07/05 09:02:44;;;;;;;2.60;2.20;;;24.90;1.00;;;;;;6132874;23;20778;-79
2022/07/05 09:05:15;;;;;;;3.50;2.90;;;25.10;1.00;;;;;;6130516;23;20435;-79
2022/07/05 09:08:00;;;;;;;2.60;2.27;;;25.20;1.00;;;;;;6131348;23;20527;-78
2022/07/05 09:10:28;;;;;;;3.10;2.63;;;25.30;1.00;;;;;;6127809;23;20418;-78
2022/07/05 09:12:55;;;;;;;4.20;2.10;;;25.30;1.00;;;;;;6132483;23;20462;-78
2022/07/05 09:15:23;;;;;;;4.20;2.27;;;25.50;1.00;;;;;;6129894;23;20863;-78
2022/07/05 09:17:50;;;;;;;2.57;2.30;;;25.60;1.00;;;;;;6131930;23;20439;-78
2022/07/05 09:20:20;;;;;;;4.00;2.30;;;25.70;1.00;;;;;;6128115;23;20415;-76
2022/07/05 09:22:53;;;;;;;2.63;1.90;;;25.70;1.00;;;;;;6137510;23;20411;-79
2022/07/05 09:25:23;;;;;;;3.57;2.40;;;25.70;1.00;;;;;;6136325;23;20431;-79
2022/07/05 09:27:54;;;;;;;4.53;2.67;;;25.70;1.00;;;;;;6137302;23;20419;-79
2022/07/05 09:30:33;;;;;;;6.13;2.27;;;25.80;1.00;;;;;;6135658;23;20754;-79
2022/07/05 09:33:17;;;;;;;2.43;2.23;;;25.80;1.00;;;;;;6134720;23;20551;-76
2022/07/05 09:35:54;;;;;;;2.77;2.33;;;25.90;1.00;;;;;;6106152;23;20887;-75
2022/07/05 09:38:22;;;;;;;2.83;2.20;;;26.00;1.00;;;;;;6102797;23;20928;-78
2022/07/05 09:40:53;;;;;;;3.50;1.97;;;26.00;1.00;;;;;;6107894;23;20399;-79
2022/07/05 09:43:22;;;;;;;2.43;2.27;;;26.40;1.00;;;;;;6107207;23;20503;-79
2022/07/05 09:45:54;;;;;;;3.57;2.97;;;27.20;1.00;;;;;;6109028;23;20431;-83
2022/07/05 09:48:22;;;;;;;3.40;2.23;;;28.90;1.00;;;;;;6108950;23;20874;-81
2022/07/05 09:50:52;;;;;;;2.17;1.97;;;30.40;1.00;;;;;;6110155;23;20416;-79
2022/07/05 09:53:20;;;;;;;6.37;3.30;;;31.50;1.00;;;;;;6107375;23;20483;-79
2022/07/05 09:56:02;;;;;;;3.57;2.40;;;32.20;1.00;;;;;;6111630;23;20457;-84
2022/07/05 09:58:32;;;;;;;2.20;2.00;;;33.00;1.00;;;;;;6111382;23;20416;-81
2022/07/05 10:01:00;;;;;;;2.50;2.30;;;33.50;1.00;;;;;;6078101;23;20462;-80
2022/07/05 10:03:31;;;;;;;3.10;2.40;;;33.90;1.00;;;;;;6105818;23;20463;-79
2022/07/05 10:06:14;;;;;;;5.77;2.70;;;34.20;1.00;;;;;;6118616;23;20696;-83
2022/07/05 10:08:41;;;;;;;3.77;2.80;;;34.00;1.00;;;;;;6139995;23;20455;-83
2022/07/05 10:11:11;;;;;;;2.10;1.90;;;34.80;1.00;;;;;;6137515;23;20392;-82
2022/07/05 10:13:40;;;;;;;4.50;3.40;;;35.40;1.00;;;;;;6139794;23;20549;-82
2022/07/05 10:16:10;;;;;;;2.93;2.73;;;35.70;1.00;;;;;;6139373;23;20379;-82
2022/07/05 10:18:38;;;;;;;3.53;2.30;;;36.40;1.00;;;;;;6139028;23;20893;-78
2022/07/05 10:21:12;;;;;;;2.50;2.10;;;36.50;1.00;;;;;;6138123;23;20392;-81
2022/07/05 10:23:44;;;;;;;7.00;2.80;;;34.90;1.00;;;;;;6144121;23;20422;-82
2022/07/05 10:26:17;;;;;;;2.33;2.07;;;33.20;1.00;;;;;;6139642;23;20443;-80
2022/07/05 10:28:51;;;;;;;2.90;2.30;;;32.60;1.00;;;;;;6144376;23;20466;-77
2022/07/05 10:31:19;;;;;;;3.67;2.50;;;31.70;1.00;;;;;;6138710;23;20530;-79
2022/07/05 10:34:07;;;;;;;3.50;2.47;;;30.30;1.00;;;;;;6142552;23;20415;-81
2022/07/05 10:36:44;;;;;;;6.00;3.50;;;29.40;1.00;;;;;;6141521;23;20554;-80
2022/07/05 10:39:15;;;;;;;2.73;2.40;;;30.10;1.00;;;;;;6141363;23;20410;-80
2022/07/05 10:41:43;;;;;;;3.23;2.40;;;30.80;1.00;;;;;;6139804;23;20431;-82
2022/07/05 10:44:17;;;;;;;2.80;2.10;;;31.20;1.00;;;;;;6141481;23;20379;-80
2022/07/05 10:46:45;;;;;;;5.13;2.90;;;30.40;1.00;;;;;;6116473;23;20425;-78
2022/07/05 10:49:17;;;;;;;4.40;3.00;;;29.80;1.00;;;;;;6109306;23;20440;-80
2022/07/05 10:54:33;;;;;;;7.27;3.00;;;30.80;1.00;;;;;;6106814;23;20444;-81
2022/07/05 10:57:22;;;;;;;2.57;2.37;;;32.20;1.00;;;;;;6112073;23;20432;-80
2022/07/05 11:00:11;;;;;;;4.80;2.63;;;31.50;1.00;;;;;;6130172;23;20392;-80
2022/07/05 11:02:38;;;;;;;3.20;2.13;;;30.00;1.00;;;;;;6110616;23;20456;-81
2022/07/05 11:05:11;;;;;;;4.67;3.20;;;29.80;1.00;;;;;;6111857;23;20507;-80
2022/07/05 11:07:59;;;;;;;3.43;2.50;;;31.50;1.00;;;;;;6104312;23;20505;-81
2022/07/05 11:10:32;;;;;;;3.70;2.50;;;32.90;1.00;;;;;;6077645;23;20606;-81
2022/07/05 11:12:59;;;;;;;2.10;1.97;;;32.80;1.00;;;;;;6087876;23;20428;-80
2022/07/05 11:15:31;;;;;;;4.20;2.63;;;31.30;1.00;;;;;;6080025;23;20465;-82
2022/07/05 11:18:16;;;;;;;6.93;4.93;;;29.90;1.00;;;;;;6080321;23;20442;-78
2022/07/05 11:20:43;;;;;;;4.07;2.83;;;29.00;1.00;;;;;;6109775;23;20496;-79
2022/07/05 11:23:12;;;;;;;4.03;2.00;;;28.30;1.00;;;;;;6099021;23;20385;-77
2022/07/05 11:25:52;;;;;;;2.77;2.13;;;29.90;1.00;;;;;;6100501;23;20505;-77
2022/07/05 11:28:30;;;;;;;3.87;1.67;;;31.30;1.00;;;;;;6102287;23;20482;-78
2022/07/05 11:31:00;;;;;;;5.97;5.07;;;33.00;1.00;;;;;;6080330;23;20457;-79
2022/07/05 11:33:36;;;;;;;4.20;2.63;;;33.00;1.00;;;;;;6038653;23;20529;-79
2022/07/05 11:36:10;;;;;;;2.77;2.47;;;31.70;1.00;;;;;;6079681;23;21050;-78
2022/07/05 11:39:15;;;;;;;3.60;2.33;;;30.80;1.00;;;;;;6103599;23;20429;-79
2022/07/05 11:41:52;;;;;;;2.37;1.80;;;32.10;1.00;;;;;;6103013;23;20433;-78
2022/07/05 11:44:18;;;;;;;3.03;2.03;;;34.20;1.00;;;;;;6086156;23;20432;-82
2022/07/05 11:46:56;;;;;;;2.43;2.10;;;35.00;1.00;;;;;;6079623;23;20849;-82
2022/07/05 11:49:24;;;;;;;2.20;2.00;;;34.00;1.00;;;;;;6066766;23;20436;-78
2022/07/05 11:52:01;;;;;;;2.47;2.03;;;32.60;1.00;;;;;;6080863;23;20409;-77
2022/07/05 11:54:32;;;;;;;3.00;2.27;;;33.50;1.00;;;;;;6080273;23;20405;-77
2022/07/05 11:57:02;;;;;;;3.03;2.20;;;34.20;1.00;;;;;;6077996;23;20429;-80
2022/07/05 11:59:31;;;;;;;1.57;1.47;;;34.70;1.00;;;;;;6076840;23;20381;-79
2022/07/05 12:01:59;;;;;;;2.43;2.00;;;34.60;1.00;;;;;;6097578;23;20881;-81
2022/07/05 12:04:31;;;;;;;4.30;1.97;;;32.80;1.00;;;;;;6107377;23;20420;-79
2022/07/05 12:07:01;;;;;;;2.57;1.70;;;32.30;1.00;;;;;;6108028;23;20405;-76
2022/07/05 12:12:42;;;;;;;2.50;1.70;;;33.80;1.00;;;;;;6078853;23;20443;-81
2022/07/05 12:12:43;;;;;;;2.90;2.63;;;34.90;1.00;;;;;;6104177;23;20440;-80
2022/07/05 12:15:14;;;;;;;3.83;1.87;;;36.20;1.00;;;;;;6108049;23;20396;-82
2022/07/05 12:17:43;;;;;;;3.07;1.50;;;37.20;1.00;;;;;;6110420;23;20424;-81
2022/07/05 12:20:16;;;;;;;1.60;1.50;;;38.10;1.00;;;;;;6107040;23;20413;-79
2022/07/05 12:22:48;;;;;;;2.23;1.53;;;39.20;1.00;;;;;;6083714;23;20819;-81
2022/07/05 12:25:18;;;;;;;1.80;1.60;;;38.70;1.00;;;;;;6103427;23;20407;-78
2022/07/05 12:27:54;;;;;;;2.33;1.77;;;37.10;1.00;;;;;;6111526;23;20461;-78
2022/07/05 12:30:21;;;;;;;4.30;2.13;;;34.70;1.00;;;;;;6108875;23;20447;-81
2022/07/05 12:32:56;;;;;;;6.00;1.57;;;34.00;1.00;;;;;;6110809;23;20438;-80
2022/07/05 12:35:34;;;;;;;3.23;1.87;;;34.80;1.00;;;;;;6110942;23;20396;-86
2022/07/05 12:38:19;;;;;;;2.33;1.67;;;33.60;1.00;;;;;;6113319;23;21042;-81
2022/07/05 12:40:58;;;;;;;3.50;1.90;;;32.20;1.00;;;;;;6103063;23;20382;-82
2022/07/05 12:43:32;;;;;;;2.13;1.93;;;31.70;1.00;;;;;;6082541;23;20493;-80
2022/07/05 12:46:02;;;;;;;3.40;2.10;;;32.90;1.00;;;;;;6109686;23;20849;-80
2022/07/05 12:48:33;;;;;;;2.03;1.60;;;35.10;1.00;;;;;;6108686;23;20397;-79
2022/07/05 12:51:00;;;;;;;1.40;1.30;;;36.70;1.00;;;;;;6110538;23;20520;-83
2022/07/05 12:59:04;;;;;;;3.30;2.10;;;34.70;1.00;;;;;;6109926;23;20455;-81
2022/07/05 13:01:36;;;;;;;3.30;2.30;;;32.70;1.00;;;;;;6141343;23;20388;-80
2022/07/05 13:04:11;;;;;;;3.53;2.33;;;31.80;1.00;;;;;;6131774;23;21097;-82
2022/07/05 13:06:56;;;;;;;2.40;2.10;;;33.00;1.00;;;;;;6132418;23;20416;-81
2022/07/05 13:09:42;;;;;;;4.10;3.03;;;34.50;1.00;;;;;;6137198;23;20384;-79
2022/07/05 13:12:14;;;;;;;5.03;2.07;;;34.10;1.00;;;;;;6138114;23;20408;-80
2022/07/05 13:14:51;;;;;;;3.60;2.20;;;33.60;1.00;;;;;;6114295;23;20752;-78
2022/07/05 13:17:20;;;;;;;3.03;2.10;;;34.20;1.00;;;;;;6126970;23;20418;-79
2022/07/05 13:19:49;;;;;;;3.73;1.70;;;35.90;1.00;;;;;;6132261;23;20430;-79
2022/07/05 13:22:15;;;;;;;1.73;1.63;;;37.10;1.00;;;;;;6132495;23;20515;-79
2022/07/05 13:24:44;;;;;;;2.10;1.60;;;38.00;1.00;;;;;;6134427;23;20502;-79
2022/07/05 13:27:14;;;;;;;4.20;2.03;;;39.10;1.00;;;;;;6118272;23;20415;-79
2022/07/05 13:29:42;;;;;;;1.40;1.30;;;39.50;1.00;;;;;;6134947;23;20518;-79
2022/07/05 13:32:15;;;;;;;4.17;2.70;;;39.20;1.00;;;;;;6134243;23;20470;-78